Time;durP1;ratioP1;P1;durP2;ratioP2;P2;SDS_P1;SDS_P2;PMS_P1;PMS_P2;Temp;Humidity;BMP_temperature;BMP_pressure;BME280_temperature;BME280_humidity;BME280_pressure;Samples;Min_cycle;Max_cycle;Signal;HPM_P1;HPM_P2
2022/12/23 00:00:22;;;;;;;;;;;;;;;;;;1039078;28;19920;-78
2022/12/23 00:00:53;;;;;;;;;;;;;;;;;;1035096;28;20324;-77
2022/12/23 00:01:24;;;;;;;;;;;;;;;;;;1036348;28;19917;-76
2022/12/23 00:01:55;;;;;;;;;;;;;;;;;;1040308;28;20007;-77
2022/12/23 00:02:26;;;;;;;;;;;;;;;;;;1034281;28;19924;-76
2022/12/23 00:02:57;;;;;;;;;;;;;;;;;;1035225;28;20448;-76
2022/12/23 00:03:28;;;;;;;;;;;;;;;;;;1034997;28;19929;-78
2022/12/23 00:03:59;;;;;;;;;;;;;;;;;;1035072;28;20412;-78
2022/12/23 00:04:29;;;;;;;;;;;;;;;;;;1036257;28;19914;-77
2022/12/23 00:05:00;;;;;;;;;;;;;;;;;;1031056;28;19914;-77
2022/12/23 00:05:34;;;;;;;;;;;;;;;;;;1030901;28;19909;-77
2022/12/23 00:06:05;;;;;;;;;;;;;;;;;;1031133;28;19914;-76
2022/12/23 00:06:36;;;;;;;;;;;;;;;;;;1031261;28;19914;-76
2022/12/23 00:07:07;;;;;;;;;;;;;;;;;;1036176;28;20009;-76
2022/12/23 00:07:38;;;;;;;;;;;;;;;;;;1030894;28;19942;-77
2022/12/23 00:08:08;;;;;;;;;;;;;;;;;;1035092;28;19917;-76
2022/12/23 00:08:39;;;;;;;;;;;;;;;;;;1034907;28;20000;-77
2022/12/23 00:09:10;;;;;;;;;;;;;;;;;;1032969;28;19914;-77
2022/12/23 00:09:41;;;;;;;;;;;;;;;;;;1031538;28;20000;-77
2022/12/23 00:10:12;;;;;;;;;;;;;;;;;;1035509;28;19906;-76
2022/12/23 00:10:43;;;;;;;;;;;;;;;;;;1030977;28;19910;-77
2022/12/23 00:11:14;;;;;;;;;;;;;;;;;;1031440;28;19914;-77
2022/12/23 00:15:06;;;;;;;;;;;;;;;;;;1040075;28;20485;-76
2022/12/23 00:15:37;;;;;;;;;;;;;;;;;;1035119;28;19910;-76
2022/12/23 00:16:08;;;;;;;;;;;;;;;;;;1030561;28;19913;-77
2022/12/23 00:16:39;;;;;;;;;;;;;;;;;;1031414;28;20022;-76
2022/12/23 00:17:10;;;;;;;;;;;;;;;;;;1030849;28;19914;-76
2022/12/23 00:17:41;;;;;;;;;;;;;;;;;;1035843;28;19937;-77
2022/12/23 00:18:12;;;;;;;;;;;;;;;;;;1034952;28;19940;-76
2022/12/23 00:18:43;;;;;;;;;;;;;;;;;;1035435;28;19917;-76
2022/12/23 00:19:14;;;;;;;;;;;;;;;;;;1034641;28;19910;-76
2022/12/23 00:19:44;;;;;;;;;;;;;;;;;;1035448;28;20508;-76
2022/12/23 00:20:15;;;;;;;;;;;;;;;;;;1035671;28;19976;-77
2022/12/23 00:20:46;;;;;;;;;;;;;;;;;;1035330;28;20369;-77
2022/12/23 00:21:17;;;;;;;;;;;;;;;;;;1038696;28;19932;-77
2022/12/23 00:21:48;;;;;;;;;;;;;;;;;;1031188;28;19957;-77
2022/12/23 00:23:03;;;;;;;;;;;;;;;;;;1033061;28;19909;-76
2022/12/23 00:23:10;;;;;;;;;;;;;;;;;;1027237;28;20411;-77
2022/12/23 00:23:41;;;;;;;;;;;;;;;;;;1033645;28;20391;-76
2022/12/23 00:24:11;;;;;;;;;;;;;;;;;;1035303;28;19909;-77
2022/12/23 00:24:42;;;;;;;;;;;;;;;;;;1030964;28;20660;-77
2022/12/23 00:25:13;;;;;;;;;;;;;;;;;;1031853;28;19917;-77
2022/12/23 00:25:44;;;;;;;;;;;;;;;;;;1031397;28;20337;-77
2022/12/23 00:26:15;;;;;;;;;;;;;;;;;;1031051;28;19914;-77
2022/12/23 00:26:46;;;;;;;;;;;;;;;;;;1035123;28;19944;-77
2022/12/23 00:27:17;;;;;;;;;;;;;;;;;;1035224;28;19920;-77
2022/12/23 00:28:00;;;;;;;;;;;;;;;;;;1039962;28;20534;-76
2022/12/23 00:28:31;;;;;;;;;;;;;;;;;;1035031;28;19979;-76
2022/12/23 00:29:01;;;;;;;;;;;;;;;;;;1031004;28;19906;-77
2022/12/23 00:29:32;;;;;;;;;;;;;;;;;;1030884;28;19910;-76
2022/12/23 00:30:03;;;;;;;;;;;;;;;;;;1031288;28;20442;-77
2022/12/23 00:30:34;;;;;;;;;;;;;;;;;;1032149;28;19920;-77
2022/12/23 00:31:05;;;;;;;;;;;;;;;;;;1031034;28;20622;-77
2022/12/23 00:31:36;;;;;;;;;;;;;;;;;;1030965;28;19913;-77
2022/12/23 00:32:07;;;;;;;;;;;;;;;;;;1030748;28;19913;-77
2022/12/23 00:32:37;;;;;;;;;;;;;;;;;;1034967;28;19936;-76
2022/12/23 00:33:08;;;;;;;;;;;;;;;;;;1036523;28;19917;-77
2022/12/23 00:33:39;;;;;;;;;;;;;;;;;;1039645;28;20011;-77
2022/12/23 00:34:11;;;;;;;;;;;;;;;;;;1039263;28;19971;-76
2022/12/23 00:34:42;;;;;;;;;;;;;;;;;;1039424;28;19913;-77
2022/12/23 00:35:12;;;;;;;;;;;;;;;;;;1039399;28;19909;-76
2022/12/23 00:35:43;;;;;;;;;;;;;;;;;;1036052;28;19920;-77
2022/12/23 00:36:14;;;;;;;;;;;;;;;;;;1034633;28;19936;-76
2022/12/23 00:36:45;;;;;;;;;;;;;;;;;;1031227;28;19917;-76
2022/12/23 00:37:16;;;;;;;;;;;;;;;;;;1031075;28;19917;-77
2022/12/23 00:37:47;;;;;;;;;;;;;;;;;;1035294;28;20750;-77
2022/12/23 00:42:52;;;;;;;;;;;;;;;;;;1022947;29;20106;-77
2022/12/23 00:43:23;;;;;;;;;;;;;;;;;;1022596;29;19918;-77
2022/12/23 00:43:54;;;;;;;;;;;;;;;;;;1023348;29;19911;-76
2022/12/23 00:44:25;;;;;;;;;;;;;;;;;;1018602;29;19915;-76
2022/12/23 00:45:14;;;;;;;;;;;;;;;;;;1019053;29;19910;-76
2022/12/23 00:45:45;;;;;;;;;;;;;;;;;;1022724;29;20324;-77
2022/12/23 00:46:16;;;;;;;;;;;;;;;;;;1023447;28;19917;-77
2022/12/23 00:46:46;;;;;;;;;;;;;;;;;;1022845;28;20354;-76
2022/12/23 00:49:56;;;;;;;;;;;;;;;;;;1023561;28;20018;-77
2022/12/23 00:50:27;;;;;;;;;;;;;;;;;;1037701;28;19909;-77
2022/12/23 00:50:57;;;;;;;;;;;;;;;;;;1035040;28;19975;-77
2022/12/23 00:51:28;;;;;;;;;;;;;;;;;;1036640;28;19913;-77
2022/12/23 00:51:59;;;;;;;;;;;;;;;;;;1035222;28;19910;-77
2022/12/23 00:52:30;;;;;;;;;;;;;;;;;;1036087;28;19910;-77
2022/12/23 00:53:01;;;;;;;;;;;;;;;;;;1039527;28;20351;-76
2022/12/23 00:53:32;;;;;;;;;;;;;;;;;;1036047;28;20653;-77
2022/12/23 00:54:03;;;;;;;;;;;;;;;;;;1040467;28;19909;-77
2022/12/23 00:54:34;;;;;;;;;;;;;;;;;;1040507;28;20325;-77
2022/12/23 00:55:04;;;;;;;;;;;;;;;;;;1035490;28;19992;-77
2022/12/23 00:55:35;;;;;;;;;;;;;;;;;;1031687;28;20435;-78
2022/12/23 00:56:06;;;;;;;;;;;;;;;;;;1031531;28;19917;-77
2022/12/23 00:56:37;;;;;;;;;;;;;;;;;;1032863;28;20098;-76
2022/12/23 00:57:08;;;;;;;;;;;;;;;;;;1035669;28;20700;-75
2022/12/23 00:57:39;;;;;;;;;;;;;;;;;;1039603;28;20004;-76
2022/12/23 00:58:10;;;;;;;;;;;;;;;;;;1035882;28;19910;-76
2022/12/23 00:58:40;;;;;;;;;;;;;;;;;;1037317;28;19917;-76
2022/12/23 00:59:11;;;;;;;;;;;;;;;;;;1040676;28;20008;-77
2022/12/23 00:59:42;;;;;;;;;;;;;;;;;;1035745;28;19917;-76
2022/12/23 01:00:13;;;;;;;;;;;;;;;;;;1031374;28;20289;-77
2022/12/23 01:05:42;;;;;;;;;;;;;;;;;;1039962;28;20584;-77
2022/12/23 01:06:13;;;;;;;;;;;;;;;;;;1035691;28;20550;-76
2022/12/23 01:06:43;;;;;;;;;;;;;;;;;;1035643;28;19913;-77
2022/12/23 01:07:14;;;;;;;;;;;;;;;;;;1036021;28;19980;-76
2022/12/23 01:07:45;;;;;;;;;;;;;;;;;;1035475;28;19959;-77
2022/12/23 01:08:16;;;;;;;;;;;;;;;;;;1035813;28;20169;-77
2022/12/23 01:08:47;;;;;;;;;;;;;;;;;;1035556;28;19914;-77
2022/12/23 01:09:18;;;;;;;;;;;;;;;;;;1036499;28;19945;-78
2022/12/23 01:09:49;;;;;;;;;;;;;;;;;;1036400;28;20337;-77
2022/12/23 01:10:19;;;;;;;;;;;;;;;;;;1035612;28;19910;-77
2022/12/23 01:10:50;;;;;;;;;;;;;;;;;;1031550;28;20490;-77
2022/12/23 01:11:21;;;;;;;;;;;;;;;;;;1031350;28;19917;-77
2022/12/23 01:11:52;;;;;;;;;;;;;;;;;;1031694;28;19992;-76
2022/12/23 01:12:23;;;;;;;;;;;;;;;;;;1036133;28;20585;-77
2022/12/23 01:12:54;;;;;;;;;;;;;;;;;;1031108;28;19906;-77
2022/12/23 01:13:25;;;;;;;;;;;;;;;;;;1028532;28;20603;-76
2022/12/23 01:13:55;;;;;;;;;;;;;;;;;;1035620;28;19910;-76
2022/12/23 01:14:26;;;;;;;;;;;;;;;;;;1032229;28;20476;-78
2022/12/23 01:14:57;;;;;;;;;;;;;;;;;;1032001;28;19913;-77
2022/12/23 01:15:28;;;;;;;;;;;;;;;;;;1031596;28;20563;-76
2022/12/23 01:15:59;;;;;;;;;;;;;;;;;;1031155;28;19909;-76
2022/12/23 01:16:30;;;;;;;;;;;;;;;;;;1032084;28;20002;-77
2022/12/23 01:17:01;;;;;;;;;;;;;;;;;;1035872;28;20000;-76
2022/12/23 01:17:32;;;;;;;;;;;;;;;;;;1040940;28;20371;-76
2022/12/23 01:18:02;;;;;;;;;;;;;;;;;;1039760;28;20007;-77
2022/12/23 01:18:33;;;;;;;;;;;;;;;;;;1040280;28;19916;-77
2022/12/23 01:19:04;;;;;;;;;;;;;;;;;;1039810;28;19913;-77
2022/12/23 01:19:35;;;;;;;;;;;;;;;;;;1039845;28;19995;-77
2022/12/23 01:20:06;;;;;;;;;;;;;;;;;;1036239;28;20269;-77
2022/12/23 01:20:37;;;;;;;;;;;;;;;;;;1031458;28;19910;-78
2022/12/23 01:21:08;;;;;;;;;;;;;;;;;;1031150;28;19906;-79
2022/12/23 01:21:39;;;;;;;;;;;;;;;;;;1034644;28;19941;-79
2022/12/23 01:22:10;;;;;;;;;;;;;;;;;;1031412;28;19910;-75
2022/12/23 01:22:41;;;;;;;;;;;;;;;;;;1033854;28;19913;-78
2022/12/23 01:23:12;;;;;;;;;;;;;;;;;;1035388;28;20568;-78
2022/12/23 01:23:43;;;;;;;;;;;;;;;;;;1035663;28;20000;-78
2022/12/23 01:24:14;;;;;;;;;;;;;;;;;;1035479;28;19906;-78
2022/12/23 01:24:44;;;;;;;;;;;;;;;;;;1035674;28;20000;-77
2022/12/23 01:25:15;;;;;;;;;;;;;;;;;;1036125;28;19933;-78
2022/12/23 01:25:47;;;;;;;;;;;;;;;;;;1031933;28;20421;-78
2022/12/23 01:26:18;;;;;;;;;;;;;;;;;;1031137;28;19910;-78
2022/12/23 01:26:48;;;;;;;;;;;;;;;;;;1031486;28;19910;-78
2022/12/23 01:27:19;;;;;;;;;;;;;;;;;;1031401;28;20392;-78
2022/12/23 01:27:50;;;;;;;;;;;;;;;;;;1034369;28;19898;-78
2022/12/23 01:28:21;;;;;;;;;;;;;;;;;;1035131;28;20494;-78
2022/12/23 01:28:52;;;;;;;;;;;;;;;;;;1027458;28;19941;-77
2022/12/23 01:29:23;;;;;;;;;;;;;;;;;;1031207;28;20290;-78
2022/12/23 01:29:54;;;;;;;;;;;;;;;;;;1031248;28;19944;-78
2022/12/23 01:30:24;;;;;;;;;;;;;;;;;;1032099;28;20476;-78
2022/12/23 01:30:55;;;;;;;;;;;;;;;;;;1031671;28;19918;-78
2022/12/23 01:31:26;;;;;;;;;;;;;;;;;;1031731;28;19909;-78
2022/12/23 01:31:57;;;;;;;;;;;;;;;;;;1030928;28;19945;-78
2022/12/23 01:32:28;;;;;;;;;;;;;;;;;;1031266;28;19937;-79
2022/12/23 01:32:59;;;;;;;;;;;;;;;;;;1028163;28;19922;-77
2022/12/23 01:33:30;;;;;;;;;;;;;;;;;;1031609;28;19910;-78
2022/12/23 01:34:00;;;;;;;;;;;;;;;;;;1031207;28;20004;-78
2022/12/23 01:34:31;;;;;;;;;;;;;;;;;;1031678;28;19910;-78
2022/12/23 01:35:02;;;;;;;;;;;;;;;;;;1035503;28;19910;-78
2022/12/23 01:35:33;;;;;;;;;;;;;;;;;;1036668;28;19909;-78
2022/12/23 01:36:04;;;;;;;;;;;;;;;;;;1035365;28;19913;-77
2022/12/23 01:36:35;;;;;;;;;;;;;;;;;;1031343;28;20774;-78
2022/12/23 01:37:06;;;;;;;;;;;;;;;;;;1027421;28;19937;-78
2022/12/23 01:37:36;;;;;;;;;;;;;;;;;;1027755;28;19910;-79
2022/12/23 01:38:07;;;;;;;;;;;;;;;;;;1032065;28;20527;-78
2022/12/23 01:38:40;;;;;;;;;;;;;;;;;;1027191;28;20317;-78
2022/12/23 01:39:11;;;;;;;;;;;;;;;;;;1027718;28;20465;-77
2022/12/23 01:39:42;;;;;;;;;;;;;;;;;;1028491;28;20005;-78
2022/12/23 01:40:13;;;;;;;;;;;;;;;;;;1032188;28;20006;-77
2022/12/23 01:40:44;;;;;;;;;;;;;;;;;;1032403;28;20145;-78
2022/12/23 01:42:42;;;;;;;;;;;;;;;;;;1035292;28;20722;-79
2022/12/23 01:42:55;;;;;;;;;;;;;;;;;;1039792;28;19920;-78
2022/12/23 01:43:26;;;;;;;;;;;;;;;;;;1035999;28;19913;-78
2022/12/23 01:43:56;;;;;;;;;;;;;;;;;;1030893;28;19913;-79
2022/12/23 01:44:27;;;;;;;;;;;;;;;;;;1027196;28;19914;-78
2022/12/23 01:44:59;;;;;;;;;;;;;;;;;;1030277;28;19914;-77
2022/12/23 01:45:30;;;;;;;;;;;;;;;;;;1031220;28;19914;-78
2022/12/23 01:46:01;;;;;;;;;;;;;;;;;;1036270;28;19914;-78
2022/12/23 01:46:32;;;;;;;;;;;;;;;;;;1031237;28;20458;-78
2022/12/23 01:47:03;;;;;;;;;;;;;;;;;;1031750;28;19913;-78
2022/12/23 01:47:33;;;;;;;;;;;;;;;;;;1034571;28;19953;-78
2022/12/23 01:48:04;;;;;;;;;;;;;;;;;;1035558;28;19914;-78
2022/12/23 01:48:35;;;;;;;;;;;;;;;;;;1031536;28;19993;-78
2022/12/23 01:49:06;;;;;;;;;;;;;;;;;;1034538;28;19972;-78
2022/12/23 01:49:37;;;;;;;;;;;;;;;;;;1035101;28;19941;-78
2022/12/23 01:50:08;;;;;;;;;;;;;;;;;;1035909;28;20380;-77
2022/12/23 01:50:39;;;;;;;;;;;;;;;;;;1039487;28;19920;-77
2022/12/23 01:51:09;;;;;;;;;;;;;;;;;;1040899;28;19920;-78
2022/12/23 01:51:40;;;;;;;;;;;;;;;;;;1039722;28;19924;-78
2022/12/23 01:52:11;;;;;;;;;;;;;;;;;;1035420;28;19951;-78
2022/12/23 01:52:42;;;;;;;;;;;;;;;;;;1035079;28;19913;-77
2022/12/23 01:53:13;;;;;;;;;;;;;;;;;;1031617;28;19947;-77
2022/12/23 01:53:44;;;;;;;;;;;;;;;;;;1032186;28;20024;-77
2022/12/23 01:54:15;;;;;;;;;;;;;;;;;;1035781;28;19920;-78
2022/12/23 01:54:45;;;;;;;;;;;;;;;;;;1031235;28;19917;-78
2022/12/23 01:55:16;;;;;;;;;;;;;;;;;;1031359;28;19920;-79
2022/12/23 01:55:47;;;;;;;;;;;;;;;;;;1031185;28;19955;-77
2022/12/23 01:56:18;;;;;;;;;;;;;;;;;;1032183;28;19914;-78
2022/12/23 01:56:49;;;;;;;;;;;;;;;;;;1031420;28;19913;-78
2022/12/23 01:57:20;;;;;;;;;;;;;;;;;;1035365;28;19910;-78
2022/12/23 01:57:52;;;;;;;;;;;;;;;;;;1031497;28;19913;-78
2022/12/23 01:58:23;;;;;;;;;;;;;;;;;;1035337;28;19913;-78
2022/12/23 01:58:53;;;;;;;;;;;;;;;;;;1035965;28;19940;-77
2022/12/23 02:03:42;;;;;;;;;;;;;;;;;;1037752;28;19917;-78
2022/12/23 02:04:12;;;;;;;;;;;;;;;;;;1036131;28;20289;-78
2022/12/23 02:04:43;;;;;;;;;;;;;;;;;;1031485;28;20554;-78
2022/12/23 02:05:14;;;;;;;;;;;;;;;;;;1033388;28;19920;-79
2022/12/23 02:05:45;;;;;;;;;;;;;;;;;;1035361;28;19914;-78
2022/12/23 02:09:35;;;;;;;;;;;;;;;;;;1039527;28;20039;-79
2022/12/23 02:10:06;;;;;;;;;;;;;;;;;;1035483;28;20054;-77
2022/12/23 02:10:37;;;;;;;;;;;;;;;;;;1034995;28;19941;-77
2022/12/23 02:11:08;;;;;;;;;;;;;;;;;;1031742;28;19913;-77
2022/12/23 02:11:38;;;;;;;;;;;;;;;;;;1031776;28;20281;-76
2022/12/23 02:12:09;;;;;;;;;;;;;;;;;;1035930;28;20447;-77
2022/12/23 02:12:40;;;;;;;;;;;;;;;;;;1035439;28;19977;-78
2022/12/23 02:13:11;;;;;;;;;;;;;;;;;;1035757;28;20460;-77
2022/12/23 02:16:15;;;;;;;;;;;;;;;;;;1034834;28;19914;-76
2022/12/23 02:16:18;;;;;;;;;;;;;;;;;;1039964;28;19912;-77
2022/12/23 02:16:49;;;;;;;;;;;;;;;;;;1040004;28;20008;-77
2022/12/23 02:17:20;;;;;;;;;;;;;;;;;;1035651;28;19913;-76
2022/12/23 02:17:50;;;;;;;;;;;;;;;;;;1031195;28;19941;-77
2022/12/23 02:18:21;;;;;;;;;;;;;;;;;;1031306;28;19966;-76
2022/12/23 02:18:52;;;;;;;;;;;;;;;;;;1031193;28;19936;-77
2022/12/23 02:19:23;;;;;;;;;;;;;;;;;;1031712;28;20088;-79
2022/12/23 02:19:54;;;;;;;;;;;;;;;;;;1031737;28;19910;-79
2022/12/23 02:20:25;;;;;;;;;;;;;;;;;;1031096;28;19914;-77
2022/12/23 02:20:56;;;;;;;;;;;;;;;;;;1031605;28;20428;-76
2022/12/23 02:21:27;;;;;;;;;;;;;;;;;;1035449;28;20589;-77
2022/12/23 02:21:58;;;;;;;;;;;;;;;;;;1035934;28;20395;-79
2022/12/23 02:22:29;;;;;;;;;;;;;;;;;;1031869;28;20357;-78
2022/12/23 02:23:00;;;;;;;;;;;;;;;;;;1027423;28;19918;-76
2022/12/23 02:23:30;;;;;;;;;;;;;;;;;;1027301;28;19957;-77
2022/12/23 02:24:01;;;;;;;;;;;;;;;;;;1029706;28;20017;-77
2022/12/23 02:24:32;;;;;;;;;;;;;;;;;;1035238;28;19920;-79
2022/12/23 02:25:03;;;;;;;;;;;;;;;;;;1031846;28;19914;-76
2022/12/23 02:25:34;;;;;;;;;;;;;;;;;;1031174;28;19913;-76
2022/12/23 02:26:05;;;;;;;;;;;;;;;;;;1031493;28;19939;-77
2022/12/23 02:26:36;;;;;;;;;;;;;;;;;;1032213;28;19917;-76
2022/12/23 02:27:06;;;;;;;;;;;;;;;;;;1035317;28;20003;-76
2022/12/23 02:27:37;;;;;;;;;;;;;;;;;;1032119;28;19914;-77
2022/12/23 02:28:08;;;;;;;;;;;;;;;;;;1035525;28;19914;-76
2022/12/23 02:28:39;;;;;;;;;;;;;;;;;;1034947;28;20020;-76
2022/12/23 02:29:10;;;;;;;;;;;;;;;;;;1039688;28;19919;-77
2022/12/23 02:29:41;;;;;;;;;;;;;;;;;;1034981;28;19921;-76
2022/12/23 02:30:12;;;;;;;;;;;;;;;;;;1036436;28;20373;-76
2022/12/23 02:30:43;;;;;;;;;;;;;;;;;;1031844;28;19945;-79
2022/12/23 02:31:14;;;;;;;;;;;;;;;;;;1035546;28;19909;-76
2022/12/23 02:31:44;;;;;;;;;;;;;;;;;;1034905;28;19910;-76
2022/12/23 02:32:15;;;;;;;;;;;;;;;;;;1034965;28;19944;-78
2022/12/23 02:32:46;;;;;;;;;;;;;;;;;;1040396;28;19999;-76
2022/12/23 02:33:17;;;;;;;;;;;;;;;;;;1035612;28;19914;-77
2022/12/23 02:33:48;;;;;;;;;;;;;;;;;;1031062;28;19966;-78
2022/12/23 02:34:19;;;;;;;;;;;;;;;;;;1034160;28;19950;-77
2022/12/23 02:34:50;;;;;;;;;;;;;;;;;;1031079;28;20396;-77
2022/12/23 02:35:20;;;;;;;;;;;;;;;;;;1032120;28;19913;-77
2022/12/23 02:35:51;;;;;;;;;;;;;;;;;;1032580;28;20435;-77
2022/12/23 02:36:22;;;;;;;;;;;;;;;;;;1033597;28;19963;-78
2022/12/23 02:36:53;;;;;;;;;;;;;;;;;;1030894;28;20419;-78
2022/12/23 02:37:24;;;;;;;;;;;;;;;;;;1027488;28;19954;-77
2022/12/23 02:37:55;;;;;;;;;;;;;;;;;;1031994;28;19914;-77
2022/12/23 02:38:26;;;;;;;;;;;;;;;;;;1031199;28;19914;-77
2022/12/23 02:38:57;;;;;;;;;;;;;;;;;;1031309;28;19914;-78
2022/12/23 02:39:27;;;;;;;;;;;;;;;;;;1038525;28;19920;-77
2022/12/23 02:39:58;;;;;;;;;;;;;;;;;;1034799;28;19979;-78
2022/12/23 02:40:29;;;;;;;;;;;;;;;;;;1036059;28;19913;-78
2022/12/23 02:41:00;;;;;;;;;;;;;;;;;;1032916;28;19909;-77
2022/12/23 02:41:31;;;;;;;;;;;;;;;;;;1027604;28;19957;-77
2022/12/23 02:42:02;;;;;;;;;;;;;;;;;;1031145;28;19922;-78
2022/12/23 02:42:33;;;;;;;;;;;;;;;;;;1035185;28;20424;-78
2022/12/23 02:43:04;;;;;;;;;;;;;;;;;;1036056;28;19914;-78
2022/12/23 02:43:34;;;;;;;;;;;;;;;;;;1033311;28;19914;-77
2022/12/23 02:44:05;;;;;;;;;;;;;;;;;;1033261;28;19963;-78
2022/12/23 02:44:36;;;;;;;;;;;;;;;;;;1030075;28;19917;-77
2022/12/23 02:45:07;;;;;;;;;;;;;;;;;;1027649;28;20852;-78
2022/12/23 02:45:38;;;;;;;;;;;;;;;;;;1032138;28;19910;-76
2022/12/23 02:46:09;;;;;;;;;;;;;;;;;;1035427;28;19991;-78
2022/12/23 02:46:40;;;;;;;;;;;;;;;;;;1035526;28;19914;-78
2022/12/23 02:47:10;;;;;;;;;;;;;;;;;;1035780;28;19913;-77
2022/12/23 02:47:41;;;;;;;;;;;;;;;;;;1036126;28;20240;-77
2022/12/23 02:48:12;;;;;;;;;;;;;;;;;;1040756;28;19996;-77
2022/12/23 02:48:43;;;;;;;;;;;;;;;;;;1034771;28;20435;-77
2022/12/23 02:49:14;;;;;;;;;;;;;;;;;;1035676;28;20663;-77
2022/12/23 02:49:45;;;;;;;;;;;;;;;;;;1030662;28;19938;-77
2022/12/23 02:50:16;;;;;;;;;;;;;;;;;;1031690;28;20305;-78
2022/12/23 02:50:47;;;;;;;;;;;;;;;;;;1035955;28;19941;-77
2022/12/23 02:51:17;;;;;;;;;;;;;;;;;;1031407;28;19913;-77
2022/12/23 02:51:48;;;;;;;;;;;;;;;;;;1035002;28;20328;-76
2022/12/23 02:52:19;;;;;;;;;;;;;;;;;;1035306;28;19920;-77
2022/12/23 02:52:50;;;;;;;;;;;;;;;;;;1035120;28;20031;-77
2022/12/23 02:53:21;;;;;;;;;;;;;;;;;;1040597;28;19913;-77
2022/12/23 02:53:52;;;;;;;;;;;;;;;;;;1034878;28;20690;-77
2022/12/23 02:54:23;;;;;;;;;;;;;;;;;;1035464;28;19952;-78
2022/12/23 02:54:53;;;;;;;;;;;;;;;;;;1037001;28;19914;-78
2022/12/23 02:55:24;;;;;;;;;;;;;;;;;;1039447;28;19916;-78
2022/12/23 02:55:55;;;;;;;;;;;;;;;;;;1035718;28;20332;-77
2022/12/23 02:56:26;;;;;;;;;;;;;;;;;;1034435;28;20427;-77
2022/12/23 02:56:57;;;;;;;;;;;;;;;;;;1035083;28;19914;-78
2022/12/23 02:57:28;;;;;;;;;;;;;;;;;;1035533;28;20274;-78
2022/12/23 02:57:59;;;;;;;;;;;;;;;;;;1039256;28;19913;-77
2022/12/23 02:58:29;;;;;;;;;;;;;;;;;;1035800;28;20377;-78
2022/12/23 02:59:00;;;;;;;;;;;;;;;;;;1030880;28;19944;-77
2022/12/23 02:59:31;;;;;;;;;;;;;;;;;;1031182;28;20428;-78
2022/12/23 03:00:02;;;;;;;;;;;;;;;;;;1031075;28;19925;-77
2022/12/23 03:00:33;;;;;;;;;;;;;;;;;;1035484;28;19921;-77
2022/12/23 03:01:05;;;;;;;;;;;;;;;;;;1035831;28;19917;-77
2022/12/23 03:01:36;;;;;;;;;;;;;;;;;;1035008;28;19913;-78
2022/12/23 03:02:07;;;;;;;;;;;;;;;;;;1035215;28;20359;-77
2022/12/23 03:02:38;;;;;;;;;;;;;;;;;;1030986;28;19910;-77
2022/12/23 03:03:09;;;;;;;;;;;;;;;;;;1031149;28;20001;-77
2022/12/23 03:03:40;;;;;;;;;;;;;;;;;;1036095;28;20401;-77
2022/12/23 03:04:11;;;;;;;;;;;;;;;;;;1035550;28;19964;-76
2022/12/23 03:04:42;;;;;;;;;;;;;;;;;;1039462;28;19986;-77
2022/12/23 03:05:13;;;;;;;;;;;;;;;;;;1039789;28;19909;-77
2022/12/23 03:05:43;;;;;;;;;;;;;;;;;;1039588;28;19920;-77
2022/12/23 03:06:14;;;;;;;;;;;;;;;;;;1040502;28;19913;-78
2022/12/23 03:06:45;;;;;;;;;;;;;;;;;;1039390;28;20434;-78
2022/12/23 03:07:16;;;;;;;;;;;;;;;;;;1031092;28;19920;-77
2022/12/23 03:07:47;;;;;;;;;;;;;;;;;;1027303;28;20010;-76
2022/12/23 03:08:18;;;;;;;;;;;;;;;;;;1028818;28;19918;-78
2022/12/23 03:08:49;;;;;;;;;;;;;;;;;;1032207;28;19980;-78
2022/12/23 03:09:20;;;;;;;;;;;;;;;;;;1035184;28;19933;-78
2022/12/23 03:09:51;;;;;;;;;;;;;;;;;;1034973;28;19913;-77
2022/12/23 03:10:22;;;;;;;;;;;;;;;;;;1031015;28;20005;-77
2022/12/23 03:10:52;;;;;;;;;;;;;;;;;;1030950;28;20009;-78
2022/12/23 03:11:23;;;;;;;;;;;;;;;;;;1031205;28;20016;-77
2022/12/23 03:11:54;;;;;;;;;;;;;;;;;;1031203;28;19968;-77
2022/12/23 03:12:25;;;;;;;;;;;;;;;;;;1035168;28;20467;-79
2022/12/23 03:12:56;;;;;;;;;;;;;;;;;;1035193;28;19996;-77
2022/12/23 03:13:27;;;;;;;;;;;;;;;;;;1035189;28;19929;-78
2022/12/23 03:13:58;;;;;;;;;;;;;;;;;;1035782;28;19909;-77
2022/12/23 03:14:29;;;;;;;;;;;;;;;;;;1035134;28;20000;-78
2022/12/23 03:14:59;;;;;;;;;;;;;;;;;;1034537;28;19917;-77
2022/12/23 03:15:30;;;;;;;;;;;;;;;;;;1031609;28;20005;-77
2022/12/23 03:16:01;;;;;;;;;;;;;;;;;;1035193;28;20242;-77
2022/12/23 03:16:32;;;;;;;;;;;;;;;;;;1035909;28;19906;-78
2022/12/23 03:17:03;;;;;;;;;;;;;;;;;;1035117;28;20408;-77
2022/12/23 03:17:34;;;;;;;;;;;;;;;;;;1031107;28;20012;-77
2022/12/23 03:18:05;;;;;;;;;;;;;;;;;;1031096;28;20598;-77
2022/12/23 03:18:35;;;;;;;;;;;;;;;;;;1033524;28;19910;-78
2022/12/23 03:19:06;;;;;;;;;;;;;;;;;;1035423;28;19905;-77
2022/12/23 03:19:37;;;;;;;;;;;;;;;;;;1035480;28;20343;-78
2022/12/23 03:20:08;;;;;;;;;;;;;;;;;;1034990;28;19918;-77
2022/12/23 03:20:39;;;;;;;;;;;;;;;;;;1035331;28;19910;-77
2022/12/23 03:21:10;;;;;;;;;;;;;;;;;;1039475;28;19915;-77
2022/12/23 03:21:41;;;;;;;;;;;;;;;;;;1035229;28;20400;-77
2022/12/23 03:22:11;;;;;;;;;;;;;;;;;;1035158;28;19916;-78
2022/12/23 03:22:42;;;;;;;;;;;;;;;;;;1030740;28;20612;-77
2022/12/23 03:23:13;;;;;;;;;;;;;;;;;;1031193;28;19996;-78
2022/12/23 03:23:44;;;;;;;;;;;;;;;;;;1031000;28;20719;-78
2022/12/23 03:24:15;;;;;;;;;;;;;;;;;;1031548;28;19973;-79
2022/12/23 03:24:46;;;;;;;;;;;;;;;;;;1035368;28;20512;-77
2022/12/23 03:25:17;;;;;;;;;;;;;;;;;;1035104;28;19909;-78
2022/12/23 03:25:47;;;;;;;;;;;;;;;;;;1031130;28;20254;-77
2022/12/23 03:26:18;;;;;;;;;;;;;;;;;;1032500;28;20039;-77
2022/12/23 03:26:49;;;;;;;;;;;;;;;;;;1035695;28;19905;-77
2022/12/23 03:27:20;;;;;;;;;;;;;;;;;;1035317;28;20463;-77
2022/12/23 03:27:51;;;;;;;;;;;;;;;;;;1035309;28;19909;-78
2022/12/23 03:28:22;;;;;;;;;;;;;;;;;;1034979;28;20312;-77
2022/12/23 03:28:53;;;;;;;;;;;;;;;;;;1035505;28;20012;-77
2022/12/23 03:29:24;;;;;;;;;;;;;;;;;;1035119;28;20276;-78
2022/12/23 03:29:55;;;;;;;;;;;;;;;;;;1035764;28;19909;-77
2022/12/23 03:30:26;;;;;;;;;;;;;;;;;;1034956;28;19920;-78
2022/12/23 03:30:56;;;;;;;;;;;;;;;;;;1035073;28;20000;-77
2022/12/23 03:31:27;;;;;;;;;;;;;;;;;;1031093;28;19917;-77
2022/12/23 03:31:58;;;;;;;;;;;;;;;;;;1030980;28;20260;-77
2022/12/23 03:32:29;;;;;;;;;;;;;;;;;;1035326;28;19913;-78
2022/12/23 03:33:00;;;;;;;;;;;;;;;;;;1031166;28;19956;-77
2022/12/23 03:33:31;;;;;;;;;;;;;;;;;;1035008;28;19955;-78
2022/12/23 03:34:02;;;;;;;;;;;;;;;;;;1034919;28;19921;-77
2022/12/23 03:34:33;;;;;;;;;;;;;;;;;;1035404;28;19967;-78
2022/12/23 03:35:03;;;;;;;;;;;;;;;;;;1035840;28;19996;-77
2022/12/23 03:35:34;;;;;;;;;;;;;;;;;;1034887;28;19925;-77
2022/12/23 03:36:05;;;;;;;;;;;;;;;;;;1035292;28;20044;-77
2022/12/23 03:36:36;;;;;;;;;;;;;;;;;;1035288;28;19909;-78
2022/12/23 03:37:07;;;;;;;;;;;;;;;;;;1035295;28;20385;-78
2022/12/23 03:37:38;;;;;;;;;;;;;;;;;;1038654;28;19992;-78
2022/12/23 03:38:09;;;;;;;;;;;;;;;;;;1037162;28;20690;-77
2022/12/23 03:38:39;;;;;;;;;;;;;;;;;;1039081;28;19940;-78
2022/12/23 03:39:10;;;;;;;;;;;;;;;;;;1035026;28;20471;-76
2022/12/23 03:39:41;;;;;;;;;;;;;;;;;;1034673;28;19909;-77
2022/12/23 03:40:12;;;;;;;;;;;;;;;;;;1035920;28;19960;-77
2022/12/23 03:40:43;;;;;;;;;;;;;;;;;;1030855;28;20048;-77
2022/12/23 03:41:14;;;;;;;;;;;;;;;;;;1030798;28;20706;-77
2022/12/23 03:41:45;;;;;;;;;;;;;;;;;;1031336;28;19910;-76
2022/12/23 03:42:15;;;;;;;;;;;;;;;;;;1034981;28;19909;-77
2022/12/23 03:42:46;;;;;;;;;;;;;;;;;;1035922;28;19909;-77
2022/12/23 03:43:17;;;;;;;;;;;;;;;;;;1035191;28;20477;-77
2022/12/23 03:43:48;;;;;;;;;;;;;;;;;;1035470;28;20020;-77
2022/12/23 03:44:19;;;;;;;;;;;;;;;;;;1030661;28;20496;-76
2022/12/23 03:44:50;;;;;;;;;;;;;;;;;;1031269;28;19914;-78
2022/12/23 03:45:21;;;;;;;;;;;;;;;;;;1027886;28;20013;-77
2022/12/23 03:45:51;;;;;;;;;;;;;;;;;;1030117;28;19917;-77
2022/12/23 03:46:23;;;;;;;;;;;;;;;;;;1035006;28;20206;-77
2022/12/23 03:46:54;;;;;;;;;;;;;;;;;;1031535;28;19910;-77
2022/12/23 03:47:25;;;;;;;;;;;;;;;;;;1034677;28;19918;-77
2022/12/23 03:47:55;;;;;;;;;;;;;;;;;;1036254;28;19940;-77
2022/12/23 03:48:26;;;;;;;;;;;;;;;;;;1031077;28;19917;-76
2022/12/23 03:48:57;;;;;;;;;;;;;;;;;;1035122;28;19959;-77
2022/12/23 03:49:28;;;;;;;;;;;;;;;;;;1034968;28;20012;-76
2022/12/23 03:49:59;;;;;;;;;;;;;;;;;;1035248;28;19968;-77
2022/12/23 03:50:30;;;;;;;;;;;;;;;;;;1036352;28;19910;-77
2022/12/23 03:51:01;;;;;;;;;;;;;;;;;;1035030;28;20617;-76
2022/12/23 03:51:31;;;;;;;;;;;;;;;;;;1034776;28;19916;-76
2022/12/23 03:52:02;;;;;;;;;;;;;;;;;;1035317;28;20270;-77
2022/12/23 03:52:33;;;;;;;;;;;;;;;;;;1034812;28;20096;-77
2022/12/23 03:53:04;;;;;;;;;;;;;;;;;;1038817;28;19909;-76
2022/12/23 03:53:35;;;;;;;;;;;;;;;;;;1034769;28;19909;-77
2022/12/23 03:54:06;;;;;;;;;;;;;;;;;;1035454;28;20000;-77
2022/12/23 03:54:37;;;;;;;;;;;;;;;;;;1030480;28;20594;-77
2022/12/23 03:55:08;;;;;;;;;;;;;;;;;;1031318;28;19993;-76
2022/12/23 03:55:38;;;;;;;;;;;;;;;;;;1035546;28;19916;-77
2022/12/23 03:56:09;;;;;;;;;;;;;;;;;;1032522;28;20472;-76
2022/12/23 03:56:40;;;;;;;;;;;;;;;;;;1034781;28;19921;-77
2022/12/23 03:57:11;;;;;;;;;;;;;;;;;;1035515;28;19909;-77
2022/12/23 03:57:42;;;;;;;;;;;;;;;;;;1039220;28;19944;-77
2022/12/23 03:58:13;;;;;;;;;;;;;;;;;;1040425;28;19913;-76